sensor_id;sensor_type;location;lat;lon;timestamp;P1;durP1;ratioP1;P2;durP2;ratioP2
69401;SDS011;56589;51.992;5.924;2024-03-08T00:00:48;25.52;;;14.23;;
69401;SDS011;56589;51.992;5.924;2024-03-08T00:03:13;28.63;;;15.10;;
69401;SDS011;56589;51.992;5.924;2024-03-08T00:05:39;31.38;;;16.08;;
69401;SDS011;56589;51.992;5.924;2024-03-08T00:08:05;29.30;;;15.85;;
69401;SDS011;56589;51.992;5.924;2024-03-08T00:10:35;27.27;;;13.73;;
69401;SDS011;56589;51.992;5.924;2024-03-08T00:13:01;29.98;;;15.77;;
69401;SDS011;56589;51.992;5.924;2024-03-08T00:15:26;26.80;;;13.75;;
69401;SDS011;56589;51.992;5.924;2024-03-08T00:17:52;24.98;;;13.18;;
69401;SDS011;56589;51.992;5.924;2024-03-08T00:20:18;31.80;;;14.98;;
69401;SDS011;56589;51.992;5.924;2024-03-08T00:22:44;29.02;;;15.13;;
69401;SDS011;56589;51.992;5.924;2024-03-08T00:25:10;29.90;;;14.90;;
69401;SDS011;56589;51.992;5.924;2024-03-08T00:27:38;29.58;;;14.95;;
69401;SDS011;56589;51.992;5.924;2024-03-08T00:30:05;27.98;;;14.00;;
69401;SDS011;56589;51.992;5.924;2024-03-08T00:32:32;25.60;;;13.43;;
69401;SDS011;56589;51.992;5.924;2024-03-08T00:34:58;32.25;;;15.65;;
69401;SDS011;56589;51.992;5.924;2024-03-08T00:37:24;24.48;;;13.93;;
69401;SDS011;56589;51.992;5.924;2024-03-08T00:39:51;30.40;;;14.07;;
69401;SDS011;56589;51.992;5.924;2024-03-08T00:42:17;25.52;;;14.02;;
69401;SDS011;56589;51.992;5.924;2024-03-08T00:44:46;26.67;;;14.25;;
69401;SDS011;56589;51.992;5.924;2024-03-08T00:47:14;30.08;;;14.55;;
69401;SDS011;56589;51.992;5.924;2024-03-08T00:49:41;26.30;;;13.45;;
69401;SDS011;56589;51.992;5.924;2024-03-08T00:52:07;31.95;;;15.02;;
69401;SDS011;56589;51.992;5.924;2024-03-08T00:54:33;30.15;;;15.60;;
69401;SDS011;56589;51.992;5.924;2024-03-08T00:56:59;26.95;;;14.32;;
69401;SDS011;56589;51.992;5.924;2024-03-08T00:59:26;24.10;;;14.65;;
69401;SDS011;56589;51.992;5.924;2024-03-08T01:01:56;26.60;;;14.57;;
69401;SDS011;56589;51.992;5.924;2024-03-08T01:04:22;28.20;;;14.30;;
69401;SDS011;56589;51.992;5.924;2024-03-08T01:06:50;24.05;;;14.13;;
69401;SDS011;56589;51.992;5.924;2024-03-08T01:09:16;25.10;;;14.40;;
69401;SDS011;56589;51.992;5.924;2024-03-08T01:11:42;24.48;;;15.02;;
69401;SDS011;56589;51.992;5.924;2024-03-08T01:14:08;32.08;;;15.05;;
69401;SDS011;56589;51.992;5.924;2024-03-08T01:16:34;29.88;;;15.77;;
69401;SDS011;56589;51.992;5.924;2024-03-08T01:19:03;24.60;;;13.50;;
69401;SDS011;56589;51.992;5.924;2024-03-08T01:21:28;24.25;;;14.32;;
69401;SDS011;56589;51.992;5.924;2024-03-08T01:23:55;27.42;;;14.50;;
69401;SDS011;56589;51.992;5.924;2024-03-08T01:26:21;26.48;;;14.07;;
69401;SDS011;56589;51.992;5.924;2024-03-08T01:28:47;25.15;;;14.07;;
69401;SDS011;56589;51.992;5.924;2024-03-08T01:31:12;23.42;;;13.95;;
69401;SDS011;56589;51.992;5.924;2024-03-08T01:33:38;26.95;;;16.17;;
69401;SDS011;56589;51.992;5.924;2024-03-08T01:36:07;23.52;;;14.82;;
69401;SDS011;56589;51.992;5.924;2024-03-08T01:38:33;25.10;;;13.35;;
69401;SDS011;56589;51.992;5.924;2024-03-08T01:40:59;26.23;;;14.48;;
69401;SDS011;56589;51.992;5.924;2024-03-08T01:43:25;33.58;;;15.35;;
69401;SDS011;56589;51.992;5.924;2024-03-08T01:45:55;28.48;;;15.80;;
69401;SDS011;56589;51.992;5.924;2024-03-08T01:48:23;25.73;;;15.02;;
69401;SDS011;56589;51.992;5.924;2024-03-08T01:50:49;30.58;;;15.75;;
69401;SDS011;56589;51.992;5.924;2024-03-08T01:53:18;28.15;;;14.98;;
69401;SDS011;56589;51.992;5.924;2024-03-08T01:55:44;22.90;;;13.73;;
69401;SDS011;56589;51.992;5.924;2024-03-08T01:58:13;26.73;;;14.63;;
69401;SDS011;56589;51.992;5.924;2024-03-08T02:00:40;25.58;;;15.55;;
69401;SDS011;56589;51.992;5.924;2024-03-08T02:03:08;28.15;;;14.88;;
69401;SDS011;56589;51.992;5.924;2024-03-08T02:05:34;25.05;;;14.50;;
69401;SDS011;56589;51.992;5.924;2024-03-08T02:08:02;24.17;;;14.82;;
69401;SDS011;56589;51.992;5.924;2024-03-08T02:10:31;27.27;;;15.20;;
69401;SDS011;56589;51.992;5.924;2024-03-08T02:12:57;24.48;;;15.15;;
69401;SDS011;56589;51.992;5.924;2024-03-08T02:15:23;26.88;;;15.30;;
69401;SDS011;56589;51.992;5.924;2024-03-08T02:17:49;24.33;;;14.73;;
69401;SDS011;56589;51.992;5.924;2024-03-08T02:20:15;26.23;;;14.57;;
69401;SDS011;56589;51.992;5.924;2024-03-08T02:22:44;25.80;;;14.95;;
69401;SDS011;56589;51.992;5.924;2024-03-08T02:25:10;23.92;;;16.25;;
69401;SDS011;56589;51.992;5.924;2024-03-08T02:27:37;30.35;;;16.45;;
69401;SDS011;56589;51.992;5.924;2024-03-08T02:30:03;28.73;;;14.93;;
69401;SDS011;56589;51.992;5.924;2024-03-08T02:32:30;26.98;;;16.15;;
69401;SDS011;56589;51.992;5.924;2024-03-08T02:34:56;29.10;;;15.60;;
69401;SDS011;56589;51.992;5.924;2024-03-08T02:37:22;27.38;;;15.05;;
69401;SDS011;56589;51.992;5.924;2024-03-08T02:39:50;29.88;;;15.25;;
69401;SDS011;56589;51.992;5.924;2024-03-08T02:42:16;25.23;;;15.45;;
69401;SDS011;56589;51.992;5.924;2024-03-08T02:44:42;23.80;;;14.75;;
69401;SDS011;56589;51.992;5.924;2024-03-08T02:47:08;30.58;;;16.30;;
69401;SDS011;56589;51.992;5.924;2024-03-08T02:49:34;25.80;;;14.80;;
69401;SDS011;56589;51.992;5.924;2024-03-08T02:52:01;26.33;;;15.32;;
69401;SDS011;56589;51.992;5.924;2024-03-08T02:54:27;26.30;;;15.57;;
69401;SDS011;56589;51.992;5.924;2024-03-08T02:56:56;26.75;;;15.48;;
69401;SDS011;56589;51.992;5.924;2024-03-08T02:59:22;27.73;;;16.70;;
69401;SDS011;56589;51.992;5.924;2024-03-08T03:01:48;28.23;;;16.48;;
69401;SDS011;56589;51.992;5.924;2024-03-08T03:04:13;29.52;;;15.63;;
69401;SDS011;56589;51.992;5.924;2024-03-08T03:06:39;29.80;;;16.55;;
69401;SDS011;56589;51.992;5.924;2024-03-08T03:09:07;25.92;;;15.60;;
69401;SDS011;56589;51.992;5.924;2024-03-08T03:11:33;28.77;;;16.38;;
69401;SDS011;56589;51.992;5.924;2024-03-08T03:14:02;28.30;;;17.25;;
69401;SDS011;56589;51.992;5.924;2024-03-08T03:16:27;29.42;;;16.48;;
69401;SDS011;56589;51.992;5.924;2024-03-08T03:18:53;26.17;;;16.42;;
69401;SDS011;56589;51.992;5.924;2024-03-08T03:21:19;27.25;;;16.05;;
69401;SDS011;56589;51.992;5.924;2024-03-08T03:23:45;28.00;;;15.70;;
69401;SDS011;56589;51.992;5.924;2024-03-08T03:26:13;31.55;;;16.83;;
69401;SDS011;56589;51.992;5.924;2024-03-08T03:28:39;27.00;;;16.08;;
69401;SDS011;56589;51.992;5.924;2024-03-08T03:31:08;27.10;;;16.02;;
69401;SDS011;56589;51.992;5.924;2024-03-08T03:33:34;26.77;;;15.25;;
69401;SDS011;56589;51.992;5.924;2024-03-08T03:36:00;30.75;;;16.27;;
69401;SDS011;56589;51.992;5.924;2024-03-08T03:38:26;29.85;;;15.90;;
69401;SDS011;56589;51.992;5.924;2024-03-08T03:40:52;24.58;;;15.30;;
69401;SDS011;56589;51.992;5.924;2024-03-08T03:43:17;26.92;;;16.90;;
69401;SDS011;56589;51.992;5.924;2024-03-08T03:45:43;26.73;;;16.00;;
69401;SDS011;56589;51.992;5.924;2024-03-08T03:48:12;30.15;;;16.67;;
69401;SDS011;56589;51.992;5.924;2024-03-08T03:50:38;25.13;;;15.07;;
69401;SDS011;56589;51.992;5.924;2024-03-08T03:53:04;29.13;;;15.27;;
69401;SDS011;56589;51.992;5.924;2024-03-08T03:55:30;28.83;;;17.05;;
69401;SDS011;56589;51.992;5.924;2024-03-08T03:57:56;29.65;;;17.17;;
69401;SDS011;56589;51.992;5.924;2024-03-08T04:00:21;26.80;;;15.82;;
69401;SDS011;56589;51.992;5.924;2024-03-08T04:02:47;31.40;;;17.15;;
69401;SDS011;56589;51.992;5.924;2024-03-08T04:05:16;28.70;;;16.80;;
69401;SDS011;56589;51.992;5.924;2024-03-08T04:07:42;29.60;;;16.63;;
69401;SDS011;56589;51.992;5.924;2024-03-08T04:10:08;27.75;;;16.33;;
69401;SDS011;56589;51.992;5.924;2024-03-08T04:12:37;30.30;;;15.93;;
69401;SDS011;56589;51.992;5.924;2024-03-08T04:15:04;28.55;;;16.10;;
69401;SDS011;56589;51.992;5.924;2024-03-08T04:17:31;26.73;;;16.25;;
69401;SDS011;56589;51.992;5.924;2024-03-08T04:19:59;27.63;;;16.80;;
69401;SDS011;56589;51.992;5.924;2024-03-08T04:22:27;30.15;;;16.35;;
69401;SDS011;56589;51.992;5.924;2024-03-08T04:24:53;25.80;;;16.13;;
69401;SDS011;56589;51.992;5.924;2024-03-08T04:27:19;30.63;;;17.63;;
69401;SDS011;56589;51.992;5.924;2024-03-08T04:29:45;28.80;;;16.20;;
69401;SDS011;56589;51.992;5.924;2024-03-08T04:32:10;27.83;;;15.52;;
69401;SDS011;56589;51.992;5.924;2024-03-08T04:34:36;30.70;;;17.08;;
69401;SDS011;56589;51.992;5.924;2024-03-08T04:37:02;28.17;;;16.33;;
69401;SDS011;56589;51.992;5.924;2024-03-08T04:39:31;26.75;;;15.18;;
69401;SDS011;56589;51.992;5.924;2024-03-08T04:41:58;27.25;;;17.02;;
69401;SDS011;56589;51.992;5.924;2024-03-08T04:44:27;28.55;;;17.30;;
69401;SDS011;56589;51.992;5.924;2024-03-08T04:46:53;30.05;;;17.58;;
69401;SDS011;56589;51.992;5.924;2024-03-08T04:49:19;27.27;;;16.88;;
69401;SDS011;56589;51.992;5.924;2024-03-08T04:51:45;26.23;;;16.35;;
69401;SDS011;56589;51.992;5.924;2024-03-08T04:54:10;26.55;;;14.45;;
69401;SDS011;56589;51.992;5.924;2024-03-08T04:56:39;32.95;;;16.92;;
69401;SDS011;56589;51.992;5.924;2024-03-08T04:59:05;28.40;;;16.58;;
69401;SDS011;56589;51.992;5.924;2024-03-08T05:01:30;27.55;;;16.30;;
69401;SDS011;56589;51.992;5.924;2024-03-08T05:03:59;32.65;;;17.10;;
69401;SDS011;56589;51.992;5.924;2024-03-08T05:06:25;31.00;;;16.73;;
69401;SDS011;56589;51.992;5.924;2024-03-08T05:08:50;30.38;;;17.15;;
69401;SDS011;56589;51.992;5.924;2024-03-08T05:11:16;30.13;;;16.83;;
69401;SDS011;56589;51.992;5.924;2024-03-08T05:13:45;30.08;;;17.35;;
69401;SDS011;56589;51.992;5.924;2024-03-08T05:16:10;32.40;;;17.73;;
69401;SDS011;56589;51.992;5.924;2024-03-08T05:18:36;31.02;;;17.70;;
69401;SDS011;56589;51.992;5.924;2024-03-08T05:21:02;31.40;;;17.25;;
69401;SDS011;56589;51.992;5.924;2024-03-08T05:23:28;30.05;;;17.55;;
69401;SDS011;56589;51.992;5.924;2024-03-08T05:25:54;29.60;;;16.50;;
69401;SDS011;56589;51.992;5.924;2024-03-08T05:28:19;32.13;;;17.77;;
69401;SDS011;56589;51.992;5.924;2024-03-08T05:30:48;31.63;;;17.33;;
69401;SDS011;56589;51.992;5.924;2024-03-08T05:33:13;30.15;;;17.00;;
69401;SDS011;56589;51.992;5.924;2024-03-08T05:35:39;32.80;;;17.40;;
69401;SDS011;56589;51.992;5.924;2024-03-08T05:38:05;26.23;;;16.98;;
69401;SDS011;56589;51.992;5.924;2024-03-08T05:40:31;28.92;;;16.98;;
69401;SDS011;56589;51.992;5.924;2024-03-08T05:42:57;29.67;;;16.30;;
69401;SDS011;56589;51.992;5.924;2024-03-08T05:45:23;26.83;;;16.90;;
69401;SDS011;56589;51.992;5.924;2024-03-08T05:47:51;28.92;;;17.42;;
69401;SDS011;56589;51.992;5.924;2024-03-08T05:50:17;25.40;;;16.60;;
69401;SDS011;56589;51.992;5.924;2024-03-08T05:52:43;31.38;;;17.50;;
69401;SDS011;56589;51.992;5.924;2024-03-08T05:55:09;31.58;;;17.83;;
69401;SDS011;56589;51.992;5.924;2024-03-08T05:57:35;29.45;;;17.27;;
69401;SDS011;56589;51.992;5.924;2024-03-08T06:00:01;28.08;;;16.20;;
69401;SDS011;56589;51.992;5.924;2024-03-08T06:02:26;27.52;;;17.75;;
69401;SDS011;56589;51.992;5.924;2024-03-08T06:04:55;30.33;;;17.33;;
69401;SDS011;56589;51.992;5.924;2024-03-08T06:07:20;29.95;;;18.00;;
69401;SDS011;56589;51.992;5.924;2024-03-08T06:09:46;26.58;;;15.93;;
69401;SDS011;56589;51.992;5.924;2024-03-08T06:12:12;29.80;;;17.35;;
69401;SDS011;56589;51.992;5.924;2024-03-08T06:14:38;33.08;;;17.83;;
69401;SDS011;56589;51.992;5.924;2024-03-08T06:17:06;33.22;;;19.25;;
69401;SDS011;56589;51.992;5.924;2024-03-08T06:19:34;29.20;;;17.73;;
69401;SDS011;56589;51.992;5.924;2024-03-08T06:22:03;33.38;;;18.25;;
69401;SDS011;56589;51.992;5.924;2024-03-08T06:24:29;30.50;;;17.52;;
69401;SDS011;56589;51.992;5.924;2024-03-08T06:26:55;30.85;;;17.70;;
69401;SDS011;56589;51.992;5.924;2024-03-08T06:29:21;32.50;;;17.60;;
69401;SDS011;56589;51.992;5.924;2024-03-08T06:31:48;27.48;;;17.05;;
69401;SDS011;56589;51.992;5.924;2024-03-08T06:34:15;28.88;;;18.77;;
69401;SDS011;56589;51.992;5.924;2024-03-08T06:36:40;29.65;;;18.08;;
69401;SDS011;56589;51.992;5.924;2024-03-08T06:39:09;26.42;;;16.60;;
69401;SDS011;56589;51.992;5.924;2024-03-08T06:41:37;28.45;;;16.73;;
69401;SDS011;56589;51.992;5.924;2024-03-08T06:44:03;30.55;;;17.65;;
69401;SDS011;56589;51.992;5.924;2024-03-08T06:46:30;32.15;;;18.35;;
69401;SDS011;56589;51.992;5.924;2024-03-08T06:48:56;30.58;;;17.20;;
69401;SDS011;56589;51.992;5.924;2024-03-08T06:51:22;29.63;;;15.50;;
69401;SDS011;56589;51.992;5.924;2024-03-08T06:53:48;33.47;;;18.85;;
69401;SDS011;56589;51.992;5.924;2024-03-08T06:56:18;31.60;;;18.30;;
69401;SDS011;56589;51.992;5.924;2024-03-08T06:58:44;30.65;;;17.13;;
69401;SDS011;56589;51.992;5.924;2024-03-08T07:01:10;31.92;;;17.65;;
69401;SDS011;56589;51.992;5.924;2024-03-08T07:03:36;27.65;;;16.45;;
69401;SDS011;56589;51.992;5.924;2024-03-08T07:06:03;28.42;;;16.80;;
69401;SDS011;56589;51.992;5.924;2024-03-08T07:08:30;31.17;;;18.45;;
69401;SDS011;56589;51.992;5.924;2024-03-08T07:10:56;30.75;;;16.83;;
69401;SDS011;56589;51.992;5.924;2024-03-08T07:13:24;31.02;;;16.98;;
69401;SDS011;56589;51.992;5.924;2024-03-08T07:15:50;29.17;;;16.95;;
69401;SDS011;56589;51.992;5.924;2024-03-08T07:18:18;26.55;;;17.00;;
69401;SDS011;56589;51.992;5.924;2024-03-08T07:20:44;27.35;;;15.35;;
69401;SDS011;56589;51.992;5.924;2024-03-08T07:23:09;31.25;;;17.83;;
69401;SDS011;56589;51.992;5.924;2024-03-08T07:25:35;31.92;;;17.92;;
69401;SDS011;56589;51.992;5.924;2024-03-08T07:28:02;34.15;;;18.48;;
69401;SDS011;56589;51.992;5.924;2024-03-08T07:30:31;28.40;;;17.83;;
69401;SDS011;56589;51.992;5.924;2024-03-08T07:32:57;32.50;;;18.42;;
69401;SDS011;56589;51.992;5.924;2024-03-08T07:35:23;35.38;;;17.75;;
69401;SDS011;56589;51.992;5.924;2024-03-08T07:37:49;29.33;;;17.23;;
69401;SDS011;56589;51.992;5.924;2024-03-08T07:40:14;31.88;;;18.65;;
69401;SDS011;56589;51.992;5.924;2024-03-08T07:42:41;29.60;;;17.80;;
69401;SDS011;56589;51.992;5.924;2024-03-08T07:45:07;32.67;;;18.13;;
69401;SDS011;56589;51.992;5.924;2024-03-08T07:47:37;31.98;;;18.92;;
69401;SDS011;56589;51.992;5.924;2024-03-08T07:50:03;31.45;;;17.42;;
69401;SDS011;56589;51.992;5.924;2024-03-08T07:52:30;30.50;;;17.27;;
69401;SDS011;56589;51.992;5.924;2024-03-08T07:54:56;33.10;;;18.63;;
69401;SDS011;56589;51.992;5.924;2024-03-08T07:57:22;31.13;;;17.75;;
69401;SDS011;56589;51.992;5.924;2024-03-08T07:59:48;31.02;;;17.65;;
69401;SDS011;56589;51.992;5.924;2024-03-08T08:02:13;32.00;;;18.38;;
69401;SDS011;56589;51.992;5.924;2024-03-08T08:04:45;29.38;;;17.30;;
69401;SDS011;56589;51.992;5.924;2024-03-08T08:07:10;28.33;;;16.35;;
69401;SDS011;56589;51.992;5.924;2024-03-08T08:09:36;32.75;;;17.98;;
69401;SDS011;56589;51.992;5.924;2024-03-08T08:12:03;29.20;;;18.95;;
69401;SDS011;56589;51.992;5.924;2024-03-08T08:14:29;26.35;;;16.80;;
69401;SDS011;56589;51.992;5.924;2024-03-08T08:16:55;33.83;;;19.08;;
69401;SDS011;56589;51.992;5.924;2024-03-08T08:19:21;31.90;;;19.40;;
69401;SDS011;56589;51.992;5.924;2024-03-08T08:21:49;31.27;;;19.50;;
69401;SDS011;56589;51.992;5.924;2024-03-08T08:24:15;33.63;;;19.27;;
69401;SDS011;56589;51.992;5.924;2024-03-08T08:26:41;32.97;;;18.45;;
69401;SDS011;56589;51.992;5.924;2024-03-08T08:29:06;32.95;;;18.98;;
69401;SDS011;56589;51.992;5.924;2024-03-08T08:31:32;32.90;;;18.15;;
69401;SDS011;56589;51.992;5.924;2024-03-08T08:33:58;30.52;;;19.30;;
69401;SDS011;56589;51.992;5.924;2024-03-08T08:36:24;36.53;;;19.52;;
69401;SDS011;56589;51.992;5.924;2024-03-08T08:38:52;28.65;;;18.30;;
69401;SDS011;56589;51.992;5.924;2024-03-08T08:41:18;33.08;;;18.00;;
69401;SDS011;56589;51.992;5.924;2024-03-08T08:43:44;31.40;;;17.90;;
69401;SDS011;56589;51.992;5.924;2024-03-08T08:46:10;32.58;;;17.33;;
69401;SDS011;56589;51.992;5.924;2024-03-08T08:48:36;33.25;;;18.95;;
69401;SDS011;56589;51.992;5.924;2024-03-08T08:51:02;31.15;;;20.00;;
69401;SDS011;56589;51.992;5.924;2024-03-08T08:53:27;33.17;;;19.50;;
69401;SDS011;56589;51.992;5.924;2024-03-08T08:55:56;34.55;;;18.05;;
69401;SDS011;56589;51.992;5.924;2024-03-08T08:58:22;31.77;;;18.10;;
69401;SDS011;56589;51.992;5.924;2024-03-08T09:00:47;29.27;;;17.17;;
69401;SDS011;56589;51.992;5.924;2024-03-08T09:03:13;29.50;;;18.13;;
69401;SDS011;56589;51.992;5.924;2024-03-08T09:05:39;28.17;;;18.02;;
69401;SDS011;56589;51.992;5.924;2024-03-08T09:08:05;29.35;;;17.10;;
69401;SDS011;56589;51.992;5.924;2024-03-08T09:10:31;28.92;;;17.27;;
69401;SDS011;56589;51.992;5.924;2024-03-08T09:13:00;29.40;;;18.85;;
69401;SDS011;56589;51.992;5.924;2024-03-08T09:15:26;30.60;;;17.80;;
69401;SDS011;56589;51.992;5.924;2024-03-08T09:17:52;33.20;;;17.85;;
69401;SDS011;56589;51.992;5.924;2024-03-08T09:20:18;31.38;;;19.77;;
69401;SDS011;56589;51.992;5.924;2024-03-08T09:22:43;29.05;;;18.27;;
69401;SDS011;56589;51.992;5.924;2024-03-08T09:25:09;28.83;;;17.77;;
69401;SDS011;56589;51.992;5.924;2024-03-08T09:27:35;30.33;;;18.95;;
69401;SDS011;56589;51.992;5.924;2024-03-08T09:30:04;28.15;;;17.23;;
69401;SDS011;56589;51.992;5.924;2024-03-08T09:32:31;28.40;;;17.02;;
69401;SDS011;56589;51.992;5.924;2024-03-08T09:34:57;29.83;;;17.20;;
69401;SDS011;56589;51.992;5.924;2024-03-08T09:37:23;30.17;;;18.88;;
69401;SDS011;56589;51.992;5.924;2024-03-08T09:39:48;29.55;;;16.27;;
69401;SDS011;56589;51.992;5.924;2024-03-08T09:42:15;28.17;;;17.98;;
69401;SDS011;56589;51.992;5.924;2024-03-08T09:44:43;27.15;;;16.70;;
69401;SDS011;56589;51.992;5.924;2024-03-08T09:47:13;33.95;;;16.95;;
69401;SDS011;56589;51.992;5.924;2024-03-08T09:49:39;27.58;;;15.75;;
69401;SDS011;56589;51.992;5.924;2024-03-08T09:52:05;30.50;;;15.95;;
69401;SDS011;56589;51.992;5.924;2024-03-08T09:54:32;30.20;;;17.35;;
69401;SDS011;56589;51.992;5.924;2024-03-08T09:56:59;32.58;;;16.35;;
69401;SDS011;56589;51.992;5.924;2024-03-08T09:59:25;26.95;;;15.43;;
69401;SDS011;56589;51.992;5.924;2024-03-08T10:01:51;28.30;;;17.38;;
69401;SDS011;56589;51.992;5.924;2024-03-08T10:04:19;33.45;;;17.50;;
69401;SDS011;56589;51.992;5.924;2024-03-08T10:06:45;29.80;;;17.45;;
69401;SDS011;56589;51.992;5.924;2024-03-08T10:09:11;27.35;;;16.02;;
69401;SDS011;56589;51.992;5.924;2024-03-08T10:11:37;28.50;;;16.63;;
69401;SDS011;56589;51.992;5.924;2024-03-08T10:14:02;28.65;;;17.27;;
69401;SDS011;56589;51.992;5.924;2024-03-08T10:16:30;27.33;;;16.45;;
69401;SDS011;56589;51.992;5.924;2024-03-08T10:18:56;29.25;;;16.92;;
69401;SDS011;56589;51.992;5.924;2024-03-08T10:21:24;24.80;;;15.43;;
69401;SDS011;56589;51.992;5.924;2024-03-08T10:23:50;28.02;;;17.38;;
69401;SDS011;56589;51.992;5.924;2024-03-08T10:26:16;29.92;;;16.52;;
69401;SDS011;56589;51.992;5.924;2024-03-08T10:28:43;29.20;;;16.70;;
69401;SDS011;56589;51.992;5.924;2024-03-08T10:31:11;28.05;;;15.55;;
69401;SDS011;56589;51.992;5.924;2024-03-08T10:33:37;25.15;;;16.35;;
69401;SDS011;56589;51.992;5.924;2024-03-08T10:36:03;25.90;;;13.82;;
69401;SDS011;56589;51.992;5.924;2024-03-08T10:38:35;23.55;;;15.55;;
69401;SDS011;56589;51.992;5.924;2024-03-08T10:41:03;26.48;;;15.52;;
69401;SDS011;56589;51.992;5.924;2024-03-08T10:43:31;24.08;;;15.35;;
69401;SDS011;56589;51.992;5.924;2024-03-08T10:49:03;25.33;;;14.85;;
69401;SDS011;56589;51.992;5.924;2024-03-08T10:51:37;23.75;;;15.15;;
69401;SDS011;56589;51.992;5.924;2024-03-08T10:54:08;21.33;;;13.80;;
69401;SDS011;56589;51.992;5.924;2024-03-08T10:56:39;26.70;;;16.40;;
69401;SDS011;56589;51.992;5.924;2024-03-08T10:59:04;24.85;;;16.15;;
69401;SDS011;56589;51.992;5.924;2024-03-08T11:01:32;24.60;;;15.52;;
69401;SDS011;56589;51.992;5.924;2024-03-08T11:03:58;21.30;;;13.65;;
69401;SDS011;56589;51.992;5.924;2024-03-08T11:06:29;21.40;;;13.18;;
69401;SDS011;56589;51.992;5.924;2024-03-08T11:09:10;22.13;;;13.55;;
69401;SDS011;56589;51.992;5.924;2024-03-08T11:14:50;22.80;;;15.23;;
69401;SDS011;56589;51.992;5.924;2024-03-08T11:17:20;24.30;;;13.93;;
69401;SDS011;56589;51.992;5.924;2024-03-08T11:19:50;24.52;;;14.70;;
69401;SDS011;56589;51.992;5.924;2024-03-08T11:22:20;25.10;;;14.43;;
69401;SDS011;56589;51.992;5.924;2024-03-08T11:24:50;19.60;;;13.15;;
69401;SDS011;56589;51.992;5.924;2024-03-08T11:27:16;24.83;;;14.50;;
69401;SDS011;56589;51.992;5.924;2024-03-08T11:29:44;21.67;;;14.07;;
69401;SDS011;56589;51.992;5.924;2024-03-08T11:32:10;20.90;;;12.57;;
69401;SDS011;56589;51.992;5.924;2024-03-08T11:34:40;22.38;;;13.30;;
69401;SDS011;56589;51.992;5.924;2024-03-08T11:37:11;24.00;;;13.70;;
69401;SDS011;56589;51.992;5.924;2024-03-08T11:39:39;21.98;;;11.90;;
69401;SDS011;56589;51.992;5.924;2024-03-08T11:42:08;19.17;;;11.82;;
69401;SDS011;56589;51.992;5.924;2024-03-08T11:44:34;19.52;;;11.95;;
69401;SDS011;56589;51.992;5.924;2024-03-08T11:46:59;25.58;;;14.45;;
69401;SDS011;56589;51.992;5.924;2024-03-08T11:49:25;20.52;;;12.63;;
69401;SDS011;56589;51.992;5.924;2024-03-08T11:51:56;22.52;;;13.18;;
69401;SDS011;56589;51.992;5.924;2024-03-08T11:54:22;18.80;;;12.55;;
69401;SDS011;56589;51.992;5.924;2024-03-08T11:56:49;20.17;;;12.38;;
69401;SDS011;56589;51.992;5.924;2024-03-08T11:59:19;19.50;;;12.27;;
69401;SDS011;56589;51.992;5.924;2024-03-08T12:02:00;20.52;;;12.63;;
69401;SDS011;56589;51.992;5.924;2024-03-08T12:04:28;19.92;;;11.23;;
69401;SDS011;56589;51.992;5.924;2024-03-08T12:06:55;18.60;;;11.63;;
69401;SDS011;56589;51.992;5.924;2024-03-08T12:09:20;18.65;;;10.45;;
69401;SDS011;56589;51.992;5.924;2024-03-08T12:11:48;16.83;;;11.25;;
69401;SDS011;56589;51.992;5.924;2024-03-08T12:14:14;18.85;;;11.63;;
69401;SDS011;56589;51.992;5.924;2024-03-08T12:16:43;19.65;;;12.45;;
69401;SDS011;56589;51.992;5.924;2024-03-08T12:19:10;21.60;;;12.43;;
69401;SDS011;56589;51.992;5.924;2024-03-08T12:21:38;18.20;;;12.25;;
69401;SDS011;56589;51.992;5.924;2024-03-08T12:24:04;17.10;;;10.73;;
69401;SDS011;56589;51.992;5.924;2024-03-08T12:26:32;18.23;;;11.52;;
69401;SDS011;56589;51.992;5.924;2024-03-08T12:31:46;20.92;;;12.48;;
69401;SDS011;56589;51.992;5.924;2024-03-08T12:34:13;18.80;;;12.70;;
69401;SDS011;56589;51.992;5.924;2024-03-08T12:36:43;24.83;;;12.65;;
69401;SDS011;56589;51.992;5.924;2024-03-08T12:39:11;17.70;;;12.00;;
69401;SDS011;56589;51.992;5.924;2024-03-08T12:41:38;15.60;;;10.70;;
69401;SDS011;56589;51.992;5.924;2024-03-08T12:44:05;20.05;;;12.80;;
69401;SDS011;56589;51.992;5.924;2024-03-08T12:46:30;17.83;;;12.00;;
69401;SDS011;56589;51.992;5.924;2024-03-08T12:48:59;18.38;;;11.85;;
69401;SDS011;56589;51.992;5.924;2024-03-08T12:51:25;21.05;;;13.25;;
69401;SDS011;56589;51.992;5.924;2024-03-08T12:53:50;18.88;;;12.63;;
69401;SDS011;56589;51.992;5.924;2024-03-08T12:56:29;20.00;;;12.77;;
69401;SDS011;56589;51.992;5.924;2024-03-08T12:58:56;21.75;;;13.15;;
69401;SDS011;56589;51.992;5.924;2024-03-08T13:01:23;20.42;;;13.27;;
69401;SDS011;56589;51.992;5.924;2024-03-08T13:03:49;19.80;;;12.73;;
69401;SDS011;56589;51.992;5.924;2024-03-08T13:06:18;20.13;;;12.27;;
69401;SDS011;56589;51.992;5.924;2024-03-08T13:08:44;20.42;;;12.20;;
69401;SDS011;56589;51.992;5.924;2024-03-08T13:11:09;23.00;;;13.38;;
69401;SDS011;56589;51.992;5.924;2024-03-08T13:13:36;20.80;;;12.70;;
69401;SDS011;56589;51.992;5.924;2024-03-08T13:16:02;22.40;;;11.93;;
69401;SDS011;56589;51.992;5.924;2024-03-08T13:18:28;24.83;;;13.00;;
69401;SDS011;56589;51.992;5.924;2024-03-08T13:20:54;19.42;;;12.85;;
69401;SDS011;56589;51.992;5.924;2024-03-08T13:23:22;21.77;;;13.27;;
69401;SDS011;56589;51.992;5.924;2024-03-08T13:25:48;19.83;;;13.10;;
69401;SDS011;56589;51.992;5.924;2024-03-08T13:28:14;19.92;;;13.48;;
69401;SDS011;56589;51.992;5.924;2024-03-08T13:30:40;20.98;;;13.18;;
69401;SDS011;56589;51.992;5.924;2024-03-08T13:33:06;18.98;;;12.75;;
69401;SDS011;56589;51.992;5.924;2024-03-08T13:35:32;18.33;;;11.95;;
69401;SDS011;56589;51.992;5.924;2024-03-08T13:37:58;24.23;;;13.63;;
69401;SDS011;56589;51.992;5.924;2024-03-08T13:40:26;20.20;;;12.88;;
69401;SDS011;56589;51.992;5.924;2024-03-08T13:42:52;18.55;;;12.40;;
69401;SDS011;56589;51.992;5.924;2024-03-08T13:45:18;19.48;;;11.52;;
69401;SDS011;56589;51.992;5.924;2024-03-08T13:47:44;18.58;;;12.00;;
69401;SDS011;56589;51.992;5.924;2024-03-08T13:50:10;20.25;;;13.20;;
69401;SDS011;56589;51.992;5.924;2024-03-08T13:52:36;22.52;;;13.32;;
69401;SDS011;56589;51.992;5.924;2024-03-08T13:55:03;19.55;;;13.45;;
69401;SDS011;56589;51.992;5.924;2024-03-08T13:57:33;18.08;;;12.15;;
69401;SDS011;56589;51.992;5.924;2024-03-08T13:59:58;19.85;;;12.63;;
69401;SDS011;56589;51.992;5.924;2024-03-08T14:02:24;20.30;;;12.88;;
69401;SDS011;56589;51.992;5.924;2024-03-08T14:04:50;18.70;;;12.98;;
69401;SDS011;56589;51.992;5.924;2024-03-08T14:07:17;18.58;;;11.57;;
69401;SDS011;56589;51.992;5.924;2024-03-08T14:09:43;17.83;;;12.05;;
69401;SDS011;56589;51.992;5.924;2024-03-08T14:12:09;19.08;;;12.07;;
69401;SDS011;56589;51.992;5.924;2024-03-08T14:14:38;19.83;;;12.60;;
69401;SDS011;56589;51.992;5.924;2024-03-08T14:17:04;19.35;;;11.80;;
69401;SDS011;56589;51.992;5.924;2024-03-08T14:19:31;18.83;;;11.68;;
69401;SDS011;56589;51.992;5.924;2024-03-08T14:21:57;19.23;;;12.52;;
69401;SDS011;56589;51.992;5.924;2024-03-08T14:24:23;20.65;;;13.48;;
69401;SDS011;56589;51.992;5.924;2024-03-08T14:26:50;24.10;;;13.30;;